sensor_id;sensor_type;location;lat;lon;timestamp;P1;durP1;ratioP1;P2;durP2;ratioP2
50988;SDS011;37008;52.210;21.112;2022-10-23T00:01:27;40.67;;;26.77;;
50988;SDS011;37008;52.210;21.112;2022-10-23T00:03:58;41.40;;;27.70;;
50988;SDS011;37008;52.210;21.112;2022-10-23T00:06:29;43.40;;;28.85;;
50988;SDS011;37008;52.210;21.112;2022-10-23T00:08:59;40.95;;;28.58;;
50988;SDS011;37008;52.210;21.112;2022-10-23T00:11:26;43.50;;;29.95;;
50988;SDS011;37008;52.210;21.112;2022-10-23T00:13:54;39.53;;;28.27;;
50988;SDS011;37008;52.210;21.112;2022-10-23T00:16:21;35.13;;;27.45;;
50988;SDS011;37008;52.210;21.112;2022-10-23T00:18:47;40.42;;;28.13;;
50988;SDS011;37008;52.210;21.112;2022-10-23T00:21:13;41.58;;;28.88;;
50988;SDS011;37008;52.210;21.112;2022-10-23T00:23:40;39.42;;;29.10;;
50988;SDS011;37008;52.210;21.112;2022-10-23T00:26:07;40.22;;;29.55;;
50988;SDS011;37008;52.210;21.112;2022-10-23T00:28:35;37.47;;;27.85;;
50988;SDS011;37008;52.210;21.112;2022-10-23T00:31:02;43.50;;;29.55;;
50988;SDS011;37008;52.210;21.112;2022-10-23T00:33:29;39.92;;;30.55;;
50988;SDS011;37008;52.210;21.112;2022-10-23T00:35:56;44.38;;;33.08;;
50988;SDS011;37008;52.210;21.112;2022-10-23T00:38:22;47.20;;;31.27;;
50988;SDS011;37008;52.210;21.112;2022-10-23T00:40:47;50.80;;;32.17;;
50988;SDS011;37008;52.210;21.112;2022-10-23T00:43:21;46.17;;;31.65;;
50988;SDS011;37008;52.210;21.112;2022-10-23T00:45:48;42.13;;;31.65;;
50988;SDS011;37008;52.210;21.112;2022-10-23T00:48:22;49.15;;;33.97;;
50988;SDS011;37008;52.210;21.112;2022-10-23T00:50:48;43.00;;;31.73;;
50988;SDS011;37008;52.210;21.112;2022-10-23T00:53:16;40.03;;;30.50;;
50988;SDS011;37008;52.210;21.112;2022-10-23T00:55:44;49.05;;;32.17;;
50988;SDS011;37008;52.210;21.112;2022-10-23T00:58:14;45.20;;;32.97;;
50988;SDS011;37008;52.210;21.112;2022-10-23T01:03:20;49.67;;;33.78;;
50988;SDS011;37008;52.210;21.112;2022-10-23T01:05:53;48.90;;;33.45;;
50988;SDS011;37008;52.210;21.112;2022-10-23T01:11:40;49.13;;;34.63;;
50988;SDS011;37008;52.210;21.112;2022-10-23T01:17:24;50.70;;;33.78;;
50988;SDS011;37008;52.210;21.112;2022-10-23T01:31:10;49.22;;;32.40;;
50988;SDS011;37008;52.210;21.112;2022-10-23T01:33:59;43.10;;;31.48;;
50988;SDS011;37008;52.210;21.112;2022-10-23T01:36:34;47.80;;;32.22;;
50988;SDS011;37008;52.210;21.112;2022-10-23T01:39:16;52.50;;;33.03;;
50988;SDS011;37008;52.210;21.112;2022-10-23T01:41:51;51.20;;;30.88;;
50988;SDS011;37008;52.210;21.112;2022-10-23T01:44:38;54.15;;;31.45;;
50988;SDS011;37008;52.210;21.112;2022-10-23T01:47:38;51.05;;;32.30;;
50988;SDS011;37008;52.210;21.112;2022-10-23T01:50:14;53.70;;;32.75;;
50988;SDS011;37008;52.210;21.112;2022-10-23T01:52:49;51.15;;;32.50;;
50988;SDS011;37008;52.210;21.112;2022-10-23T01:55:14;52.22;;;33.97;;
50988;SDS011;37008;52.210;21.112;2022-10-23T01:57:41;52.60;;;32.17;;
50988;SDS011;37008;52.210;21.112;2022-10-23T02:00:14;56.90;;;34.20;;
50988;SDS011;37008;52.210;21.112;2022-10-23T02:02:44;55.17;;;32.03;;
50988;SDS011;37008;52.210;21.112;2022-10-23T02:05:16;56.33;;;33.60;;
50988;SDS011;37008;52.210;21.112;2022-10-23T02:07:51;48.45;;;30.98;;
50988;SDS011;37008;52.210;21.112;2022-10-23T02:10:20;48.88;;;31.42;;
50988;SDS011;37008;52.210;21.112;2022-10-23T02:15:50;52.42;;;32.05;;
50988;SDS011;37008;52.210;21.112;2022-10-23T02:18:44;47.83;;;31.30;;
50988;SDS011;37008;52.210;21.112;2022-10-23T02:21:35;49.38;;;30.40;;
50988;SDS011;37008;52.210;21.112;2022-10-23T02:24:19;51.35;;;30.55;;
50988;SDS011;37008;52.210;21.112;2022-10-23T02:26:54;52.65;;;31.65;;
50988;SDS011;37008;52.210;21.112;2022-10-23T02:29:36;58.47;;;34.08;;
50988;SDS011;37008;52.210;21.112;2022-10-23T02:32:24;50.13;;;31.50;;
50988;SDS011;37008;52.210;21.112;2022-10-23T02:34:51;51.75;;;30.95;;
50988;SDS011;37008;52.210;21.112;2022-10-23T02:37:21;50.60;;;32.45;;
50988;SDS011;37008;52.210;21.112;2022-10-23T02:39:47;50.67;;;32.25;;
50988;SDS011;37008;52.210;21.112;2022-10-23T02:42:27;50.67;;;32.08;;
50988;SDS011;37008;52.210;21.112;2022-10-23T02:45:02;48.22;;;31.92;;
50988;SDS011;37008;52.210;21.112;2022-10-23T02:48:03;55.25;;;33.22;;
50988;SDS011;37008;52.210;21.112;2022-10-23T02:51:11;52.05;;;32.75;;
50988;SDS011;37008;52.210;21.112;2022-10-23T02:53:58;53.35;;;34.08;;
50988;SDS011;37008;52.210;21.112;2022-10-23T02:59:26;57.92;;;34.25;;
50988;SDS011;37008;52.210;21.112;2022-10-23T03:02:25;53.75;;;33.10;;
50988;SDS011;37008;52.210;21.112;2022-10-23T03:04:56;52.92;;;34.13;;
50988;SDS011;37008;52.210;21.112;2022-10-23T03:07:24;52.72;;;34.08;;
50988;SDS011;37008;52.210;21.112;2022-10-23T03:09:56;53.20;;;34.08;;
50988;SDS011;37008;52.210;21.112;2022-10-23T03:12:22;53.85;;;35.25;;
50988;SDS011;37008;52.210;21.112;2022-10-23T03:14:50;61.20;;;35.40;;
50988;SDS011;37008;52.210;21.112;2022-10-23T03:17:18;57.40;;;35.55;;
50988;SDS011;37008;52.210;21.112;2022-10-23T03:19:46;67.97;;;37.08;;
50988;SDS011;37008;52.210;21.112;2022-10-23T03:22:18;62.47;;;36.72;;
50988;SDS011;37008;52.210;21.112;2022-10-23T03:24:49;59.65;;;35.97;;
50988;SDS011;37008;52.210;21.112;2022-10-23T03:27:18;63.38;;;35.92;;
50988;SDS011;37008;52.210;21.112;2022-10-23T03:29:44;62.85;;;37.38;;
50988;SDS011;37008;52.210;21.112;2022-10-23T03:32:15;67.13;;;37.67;;
50988;SDS011;37008;52.210;21.112;2022-10-23T03:34:47;59.92;;;36.08;;
50988;SDS011;37008;52.210;21.112;2022-10-23T03:37:19;63.95;;;37.75;;
50988;SDS011;37008;52.210;21.112;2022-10-23T03:39:54;58.00;;;36.88;;
50988;SDS011;37008;52.210;21.112;2022-10-23T03:42:23;66.82;;;36.80;;
50988;SDS011;37008;52.210;21.112;2022-10-23T03:44:49;66.03;;;38.70;;
50988;SDS011;37008;52.210;21.112;2022-10-23T03:47:24;62.97;;;38.40;;
50988;SDS011;37008;52.210;21.112;2022-10-23T03:49:54;72.95;;;38.63;;
50988;SDS011;37008;52.210;21.112;2022-10-23T03:52:22;72.13;;;40.60;;
50988;SDS011;37008;52.210;21.112;2022-10-23T03:54:48;61.80;;;38.10;;
50988;SDS011;37008;52.210;21.112;2022-10-23T03:57:16;61.00;;;38.10;;
50988;SDS011;37008;52.210;21.112;2022-10-23T03:59:45;69.05;;;39.38;;
50988;SDS011;37008;52.210;21.112;2022-10-23T04:02:22;69.40;;;39.17;;
50988;SDS011;37008;52.210;21.112;2022-10-23T04:04:48;68.13;;;41.30;;
50988;SDS011;37008;52.210;21.112;2022-10-23T04:07:15;67.10;;;39.03;;
50988;SDS011;37008;52.210;21.112;2022-10-23T04:09:41;68.57;;;38.42;;
50988;SDS011;37008;52.210;21.112;2022-10-23T04:12:06;63.88;;;38.55;;
50988;SDS011;37008;52.210;21.112;2022-10-23T04:14:33;62.05;;;38.50;;
50988;SDS011;37008;52.210;21.112;2022-10-23T04:16:59;59.00;;;37.67;;
50988;SDS011;37008;52.210;21.112;2022-10-23T04:19:25;60.97;;;38.17;;
50988;SDS011;37008;52.210;21.112;2022-10-23T04:21:50;64.93;;;36.80;;
50988;SDS011;37008;52.210;21.112;2022-10-23T04:24:19;55.53;;;35.47;;
50988;SDS011;37008;52.210;21.112;2022-10-23T04:26:44;53.55;;;35.47;;
50988;SDS011;37008;52.210;21.112;2022-10-23T04:29:19;56.63;;;36.70;;
50988;SDS011;37008;52.210;21.112;2022-10-23T04:31:50;54.13;;;35.28;;
50988;SDS011;37008;52.210;21.112;2022-10-23T04:34:18;58.25;;;36.00;;
50988;SDS011;37008;52.210;21.112;2022-10-23T04:36:44;54.75;;;34.75;;
50988;SDS011;37008;52.210;21.112;2022-10-23T04:39:17;58.17;;;38.05;;
50988;SDS011;37008;52.210;21.112;2022-10-23T04:41:43;55.90;;;35.08;;
50988;SDS011;37008;52.210;21.112;2022-10-23T04:44:09;60.83;;;37.50;;
50988;SDS011;37008;52.210;21.112;2022-10-23T04:46:35;52.63;;;34.35;;
50988;SDS011;37008;52.210;21.112;2022-10-23T04:49:00;59.28;;;36.47;;
50988;SDS011;37008;52.210;21.112;2022-10-23T04:51:26;47.20;;;32.90;;
50988;SDS011;37008;52.210;21.112;2022-10-23T04:53:52;51.25;;;33.28;;
50988;SDS011;37008;52.210;21.112;2022-10-23T04:56:17;49.88;;;33.90;;
50988;SDS011;37008;52.210;21.112;2022-10-23T04:58:43;59.05;;;35.45;;
50988;SDS011;37008;52.210;21.112;2022-10-23T05:01:09;58.13;;;36.33;;
50988;SDS011;37008;52.210;21.112;2022-10-23T05:03:35;56.55;;;36.40;;
50988;SDS011;37008;52.210;21.112;2022-10-23T05:06:01;56.97;;;37.50;;
50988;SDS011;37008;52.210;21.112;2022-10-23T05:08:28;58.83;;;36.72;;
50988;SDS011;37008;52.210;21.112;2022-10-23T05:10:54;63.35;;;36.80;;
50988;SDS011;37008;52.210;21.112;2022-10-23T05:13:19;56.05;;;36.42;;
50988;SDS011;37008;52.210;21.112;2022-10-23T05:15:46;58.70;;;35.65;;
50988;SDS011;37008;52.210;21.112;2022-10-23T05:18:20;55.80;;;36.00;;
50988;SDS011;37008;52.210;21.112;2022-10-23T05:20:52;56.97;;;36.75;;
50988;SDS011;37008;52.210;21.112;2022-10-23T05:23:21;70.53;;;38.72;;
50988;SDS011;37008;52.210;21.112;2022-10-23T05:25:48;62.25;;;35.70;;
50988;SDS011;37008;52.210;21.112;2022-10-23T05:28:13;60.97;;;36.35;;
50988;SDS011;37008;52.210;21.112;2022-10-23T05:30:39;59.08;;;35.47;;
50988;SDS011;37008;52.210;21.112;2022-10-23T05:33:05;62.97;;;37.10;;
50988;SDS011;37008;52.210;21.112;2022-10-23T05:35:31;64.18;;;36.08;;
50988;SDS011;37008;52.210;21.112;2022-10-23T05:37:57;62.13;;;35.70;;
50988;SDS011;37008;52.210;21.112;2022-10-23T05:40:24;61.53;;;37.35;;
50988;SDS011;37008;52.210;21.112;2022-10-23T05:42:50;64.70;;;36.72;;
50988;SDS011;37008;52.210;21.112;2022-10-23T05:45:15;65.05;;;36.60;;
50988;SDS011;37008;52.210;21.112;2022-10-23T05:47:42;59.63;;;36.38;;
50988;SDS011;37008;52.210;21.112;2022-10-23T05:50:09;66.05;;;36.03;;
50988;SDS011;37008;52.210;21.112;2022-10-23T05:52:35;69.07;;;39.10;;
50988;SDS011;37008;52.210;21.112;2022-10-23T05:55:00;70.10;;;37.92;;
50988;SDS011;37008;52.210;21.112;2022-10-23T05:57:26;58.38;;;37.25;;
50988;SDS011;37008;52.210;21.112;2022-10-23T05:59:51;67.50;;;38.58;;
50988;SDS011;37008;52.210;21.112;2022-10-23T06:02:17;68.75;;;40.92;;
50988;SDS011;37008;52.210;21.112;2022-10-23T06:04:43;67.30;;;41.65;;
50988;SDS011;37008;52.210;21.112;2022-10-23T06:07:08;73.05;;;42.35;;
50988;SDS011;37008;52.210;21.112;2022-10-23T06:09:34;72.78;;;41.83;;
50988;SDS011;37008;52.210;21.112;2022-10-23T06:12:00;77.18;;;43.35;;
50988;SDS011;37008;52.210;21.112;2022-10-23T06:14:26;64.03;;;39.00;;
50988;SDS011;37008;52.210;21.112;2022-10-23T06:16:52;75.50;;;42.03;;
50988;SDS011;37008;52.210;21.112;2022-10-23T06:19:18;67.57;;;41.42;;
50988;SDS011;37008;52.210;21.112;2022-10-23T06:21:44;67.90;;;40.53;;
50988;SDS011;37008;52.210;21.112;2022-10-23T06:24:10;73.28;;;41.72;;
50988;SDS011;37008;52.210;21.112;2022-10-23T06:26:35;65.60;;;39.53;;
50988;SDS011;37008;52.210;21.112;2022-10-23T06:29:01;64.60;;;39.67;;
50988;SDS011;37008;52.210;21.112;2022-10-23T06:31:27;63.22;;;36.90;;
50988;SDS011;37008;52.210;21.112;2022-10-23T06:33:53;59.65;;;36.25;;
50988;SDS011;37008;52.210;21.112;2022-10-23T06:36:20;50.22;;;31.67;;
50988;SDS011;37008;52.210;21.112;2022-10-23T06:38:46;51.05;;;32.92;;
50988;SDS011;37008;52.210;21.112;2022-10-23T06:41:14;49.15;;;29.92;;
50988;SDS011;37008;52.210;21.112;2022-10-23T06:43:42;51.97;;;28.27;;
50988;SDS011;37008;52.210;21.112;2022-10-23T06:46:08;44.28;;;30.13;;
50988;SDS011;37008;52.210;21.112;2022-10-23T06:48:34;42.95;;;27.30;;
50988;SDS011;37008;52.210;21.112;2022-10-23T06:51:05;45.58;;;28.02;;
50988;SDS011;37008;52.210;21.112;2022-10-23T06:53:31;42.88;;;28.33;;
50988;SDS011;37008;52.210;21.112;2022-10-23T06:55:58;46.85;;;27.33;;
50988;SDS011;37008;52.210;21.112;2022-10-23T06:58:24;46.65;;;27.35;;
50988;SDS011;37008;52.210;21.112;2022-10-23T07:00:50;44.15;;;28.98;;
50988;SDS011;37008;52.210;21.112;2022-10-23T07:03:15;46.45;;;27.63;;
50988;SDS011;37008;52.210;21.112;2022-10-23T07:05:41;45.35;;;25.38;;
50988;SDS011;37008;52.210;21.112;2022-10-23T07:08:08;44.60;;;26.58;;
50988;SDS011;37008;52.210;21.112;2022-10-23T07:10:34;43.50;;;26.52;;
50988;SDS011;37008;52.210;21.112;2022-10-23T07:13:00;43.10;;;25.50;;
50988;SDS011;37008;52.210;21.112;2022-10-23T07:15:27;39.90;;;26.35;;
50988;SDS011;37008;52.210;21.112;2022-10-23T07:17:56;39.50;;;24.95;;
50988;SDS011;37008;52.210;21.112;2022-10-23T07:20:22;47.65;;;26.48;;
50988;SDS011;37008;52.210;21.112;2022-10-23T07:22:51;41.58;;;27.98;;
50988;SDS011;37008;52.210;21.112;2022-10-23T07:25:18;40.70;;;25.63;;
50988;SDS011;37008;52.210;21.112;2022-10-23T07:27:49;39.53;;;25.73;;
50988;SDS011;37008;52.210;21.112;2022-10-23T07:30:15;42.88;;;26.38;;
50988;SDS011;37008;52.210;21.112;2022-10-23T07:32:41;41.17;;;26.98;;
50988;SDS011;37008;52.210;21.112;2022-10-23T07:35:07;41.72;;;26.33;;
50988;SDS011;37008;52.210;21.112;2022-10-23T07:37:33;41.55;;;25.85;;
50988;SDS011;37008;52.210;21.112;2022-10-23T07:39:59;45.65;;;25.98;;
50988;SDS011;37008;52.210;21.112;2022-10-23T07:42:25;36.42;;;26.15;;
50988;SDS011;37008;52.210;21.112;2022-10-23T07:44:51;39.70;;;26.10;;
50988;SDS011;37008;52.210;21.112;2022-10-23T07:47:16;38.70;;;26.30;;
50988;SDS011;37008;52.210;21.112;2022-10-23T07:49:42;35.53;;;26.33;;
50988;SDS011;37008;52.210;21.112;2022-10-23T07:52:07;41.08;;;25.98;;
50988;SDS011;37008;52.210;21.112;2022-10-23T07:54:33;39.33;;;24.60;;
50988;SDS011;37008;52.210;21.112;2022-10-23T07:56:59;43.08;;;25.35;;
50988;SDS011;37008;52.210;21.112;2022-10-23T07:59:24;39.13;;;25.25;;
50988;SDS011;37008;52.210;21.112;2022-10-23T08:01:51;38.95;;;25.48;;
50988;SDS011;37008;52.210;21.112;2022-10-23T08:04:18;40.65;;;25.02;;
50988;SDS011;37008;52.210;21.112;2022-10-23T08:06:44;39.20;;;25.63;;
50988;SDS011;37008;52.210;21.112;2022-10-23T08:09:10;35.40;;;24.70;;
50988;SDS011;37008;52.210;21.112;2022-10-23T08:11:36;37.05;;;24.88;;
50988;SDS011;37008;52.210;21.112;2022-10-23T08:14:02;36.75;;;24.20;;
50988;SDS011;37008;52.210;21.112;2022-10-23T08:16:30;36.92;;;24.15;;
50988;SDS011;37008;52.210;21.112;2022-10-23T08:18:57;35.42;;;23.83;;
50988;SDS011;37008;52.210;21.112;2022-10-23T08:21:22;37.65;;;23.00;;
50988;SDS011;37008;52.210;21.112;2022-10-23T08:23:48;35.83;;;22.58;;
50988;SDS011;37008;52.210;21.112;2022-10-23T08:26:16;35.05;;;23.02;;
50988;SDS011;37008;52.210;21.112;2022-10-23T08:28:42;35.08;;;23.25;;
50988;SDS011;37008;52.210;21.112;2022-10-23T08:31:10;33.88;;;23.23;;
50988;SDS011;37008;52.210;21.112;2022-10-23T08:33:37;35.60;;;23.73;;
50988;SDS011;37008;52.210;21.112;2022-10-23T08:36:04;36.45;;;23.17;;
50988;SDS011;37008;52.210;21.112;2022-10-23T08:38:30;35.65;;;22.85;;
50988;SDS011;37008;52.210;21.112;2022-10-23T08:40:57;32.20;;;23.95;;
50988;SDS011;37008;52.210;21.112;2022-10-23T08:43:35;34.53;;;23.02;;
50988;SDS011;37008;52.210;21.112;2022-10-23T08:46:07;36.53;;;24.27;;
50988;SDS011;37008;52.210;21.112;2022-10-23T08:51:47;39.35;;;23.80;;
50988;SDS011;37008;52.210;21.112;2022-10-23T08:54:13;41.13;;;24.17;;
50988;SDS011;37008;52.210;21.112;2022-10-23T08:56:45;37.03;;;23.33;;
50988;SDS011;37008;52.210;21.112;2022-10-23T08:59:23;37.05;;;24.30;;
50988;SDS011;37008;52.210;21.112;2022-10-23T09:02:01;30.80;;;23.38;;
50988;SDS011;37008;52.210;21.112;2022-10-23T09:04:35;40.65;;;25.10;;
50988;SDS011;37008;52.210;21.112;2022-10-23T09:12:18;30.40;;;21.08;;
50988;SDS011;37008;52.210;21.112;2022-10-23T09:17:54;33.33;;;23.35;;
50988;SDS011;37008;52.210;21.112;2022-10-23T09:23:03;34.22;;;22.30;;
50988;SDS011;37008;52.210;21.112;2022-10-23T09:25:38;34.58;;;24.10;;
50988;SDS011;37008;52.210;21.112;2022-10-23T09:28:05;32.05;;;21.65;;
50988;SDS011;37008;52.210;21.112;2022-10-23T09:30:37;32.67;;;23.58;;
50988;SDS011;37008;52.210;21.112;2022-10-23T09:33:12;50.22;;;33.05;;
50988;SDS011;37008;52.210;21.112;2022-10-23T09:40:54;38.42;;;28.17;;
50988;SDS011;37008;52.210;21.112;2022-10-23T09:43:20;31.83;;;21.77;;
50988;SDS011;37008;52.210;21.112;2022-10-23T09:45:56;35.78;;;26.65;;
50988;SDS011;37008;52.210;21.112;2022-10-23T09:48:24;33.38;;;23.77;;
50988;SDS011;37008;52.210;21.112;2022-10-23T09:51:23;33.95;;;23.65;;
50988;SDS011;37008;52.210;21.112;2022-10-23T09:53:56;28.85;;;21.13;;
50988;SDS011;37008;52.210;21.112;2022-10-23T09:56:25;28.58;;;20.38;;
50988;SDS011;37008;52.210;21.112;2022-10-23T10:01:44;29.67;;;18.77;;
50988;SDS011;37008;52.210;21.112;2022-10-23T10:04:12;30.10;;;18.63;;
50988;SDS011;37008;52.210;21.112;2022-10-23T10:06:38;26.48;;;19.05;;
50988;SDS011;37008;52.210;21.112;2022-10-23T10:09:05;26.08;;;18.95;;
50988;SDS011;37008;52.210;21.112;2022-10-23T10:11:43;23.75;;;17.45;;
50988;SDS011;37008;52.210;21.112;2022-10-23T10:27:51;26.58;;;16.63;;
50988;SDS011;37008;52.210;21.112;2022-10-23T10:30:19;23.17;;;16.30;;
50988;SDS011;37008;52.210;21.112;2022-10-23T10:32:53;22.75;;;15.57;;
50988;SDS011;37008;52.210;21.112;2022-10-23T10:35:33;24.15;;;16.63;;
50988;SDS011;37008;52.210;21.112;2022-10-23T10:40:31;28.70;;;16.50;;
50988;SDS011;37008;52.210;21.112;2022-10-23T10:49:41;22.08;;;15.90;;
50988;SDS011;37008;52.210;21.112;2022-10-23T10:57:34;21.38;;;15.70;;
50988;SDS011;37008;52.210;21.112;2022-10-23T11:00:05;23.25;;;15.98;;
50988;SDS011;37008;52.210;21.112;2022-10-23T11:02:47;21.65;;;15.68;;
50988;SDS011;37008;52.210;21.112;2022-10-23T11:05:30;24.77;;;13.63;;
50988;SDS011;37008;52.210;21.112;2022-10-23T11:08:21;20.33;;;14.15;;
50988;SDS011;37008;52.210;21.112;2022-10-23T11:10:57;21.80;;;11.63;;
50988;SDS011;37008;52.210;21.112;2022-10-23T11:13:38;16.67;;;11.77;;
50988;SDS011;37008;52.210;21.112;2022-10-23T11:16:13;22.48;;;11.65;;
50988;SDS011;37008;52.210;21.112;2022-10-23T11:37:25;15.75;;;11.05;;
50988;SDS011;37008;52.210;21.112;2022-10-23T11:40:34;14.55;;;11.18;;
50988;SDS011;37008;52.210;21.112;2022-10-23T11:42:48;16.07;;;10.77;;
50988;SDS011;37008;52.210;21.112;2022-10-23T11:45:24;18.13;;;10.57;;
50988;SDS011;37008;52.210;21.112;2022-10-23T11:50:32;16.50;;;10.77;;
50988;SDS011;37008;52.210;21.112;2022-10-23T11:53:24;18.45;;;10.45;;
50988;SDS011;37008;52.210;21.112;2022-10-23T11:58:49;17.90;;;10.85;;
50988;SDS011;37008;52.210;21.112;2022-10-23T12:01:40;16.50;;;11.73;;
50988;SDS011;37008;52.210;21.112;2022-10-23T12:06:45;16.25;;;10.60;;
50988;SDS011;37008;52.210;21.112;2022-10-23T12:19:47;16.85;;;10.52;;
50988;SDS011;37008;52.210;21.112;2022-10-23T12:22:14;14.63;;;11.23;;
50988;SDS011;37008;52.210;21.112;2022-10-23T12:24:48;19.63;;;10.77;;
50988;SDS011;37008;52.210;21.112;2022-10-23T12:30:11;19.50;;;10.50;;
50988;SDS011;37008;52.210;21.112;2022-10-23T12:38:19;14.32;;;10.20;;
50988;SDS011;37008;52.210;21.112;2022-10-23T12:40:49;16.10;;;9.82;;
50988;SDS011;37008;52.210;21.112;2022-10-23T12:43:30;17.60;;;10.32;;
50988;SDS011;37008;52.210;21.112;2022-10-23T12:46:01;18.85;;;10.88;;
50988;SDS011;37008;52.210;21.112;2022-10-23T12:48:49;13.15;;;9.95;;
50988;SDS011;37008;52.210;21.112;2022-10-23T12:51:21;15.98;;;10.77;;
50988;SDS011;37008;52.210;21.112;2022-10-23T12:53:49;18.35;;;10.45;;
50988;SDS011;37008;52.210;21.112;2022-10-23T12:56:15;13.35;;;11.43;;
50988;SDS011;37008;52.210;21.112;2022-10-23T12:58:48;20.73;;;12.00;;
50988;SDS011;37008;52.210;21.112;2022-10-23T13:01:22;14.38;;;10.70;;
50988;SDS011;37008;52.210;21.112;2022-10-23T13:03:49;15.55;;;11.85;;
50988;SDS011;37008;52.210;21.112;2022-10-23T13:06:16;16.60;;;13.07;;
50988;SDS011;37008;52.210;21.112;2022-10-23T13:08:43;19.42;;;12.48;;
50988;SDS011;37008;52.210;21.112;2022-10-23T13:11:13;16.38;;;11.57;;
50988;SDS011;37008;52.210;21.112;2022-10-23T13:13:41;16.67;;;11.82;;
50988;SDS011;37008;52.210;21.112;2022-10-23T13:16:13;17.92;;;13.00;;
50988;SDS011;37008;52.210;21.112;2022-10-23T13:18:49;18.02;;;11.75;;
50988;SDS011;37008;52.210;21.112;2022-10-23T13:21:19;16.13;;;12.82;;
50988;SDS011;37008;52.210;21.112;2022-10-23T13:23:47;17.25;;;12.65;;
50988;SDS011;37008;52.210;21.112;2022-10-23T13:26:33;17.88;;;12.75;;
50988;SDS011;37008;52.210;21.112;2022-10-23T13:29:16;20.50;;;13.00;;
50988;SDS011;37008;52.210;21.112;2022-10-23T13:31:48;18.33;;;13.95;;
50988;SDS011;37008;52.210;21.112;2022-10-23T13:34:21;19.00;;;13.90;;
50988;SDS011;37008;52.210;21.112;2022-10-23T13:36:51;22.92;;;13.25;;
50988;SDS011;37008;52.210;21.112;2022-10-23T13:39:29;17.88;;;13.77;;
50988;SDS011;37008;52.210;21.112;2022-10-23T13:41:58;18.58;;;13.70;;
50988;SDS011;37008;52.210;21.112;2022-10-23T13:44:33;19.30;;;15.48;;
50988;SDS011;37008;52.210;21.112;2022-10-23T13:47:01;20.38;;;14.93;;
50988;SDS011;37008;52.210;21.112;2022-10-23T13:49:27;19.05;;;16.05;;
50988;SDS011;37008;52.210;21.112;2022-10-23T13:51:53;21.02;;;14.82;;
50988;SDS011;37008;52.210;21.112;2022-10-23T13:54:21;18.05;;;14.95;;
50988;SDS011;37008;52.210;21.112;2022-10-23T13:56:48;18.33;;;15.10;;
50988;SDS011;37008;52.210;21.112;2022-10-23T13:59:14;17.95;;;15.02;;
50988;SDS011;37008;52.210;21.112;2022-10-23T14:01:41;22.52;;;15.90;;
50988;SDS011;37008;52.210;21.112;2022-10-23T14:04:08;23.85;;;15.77;;
50988;SDS011;37008;52.210;21.112;2022-10-23T14:06:35;21.67;;;15.57;;
50988;SDS011;37008;52.210;21.112;2022-10-23T14:09:02;23.45;;;16.55;;
50988;SDS011;37008;52.210;21.112;2022-10-23T14:11:29;22.60;;;16.27;;
50988;SDS011;37008;52.210;21.112;2022-10-23T14:13:55;20.90;;;16.35;;
50988;SDS011;37008;52.210;21.112;2022-10-23T14:16:21;19.15;;;15.52;;
50988;SDS011;37008;52.210;21.112;2022-10-23T14:18:47;26.05;;;16.90;;
50988;SDS011;37008;52.210;21.112;2022-10-23T14:21:14;18.58;;;16.58;;
50988;SDS011;37008;52.210;21.112;2022-10-23T14:23:41;19.92;;;15.43;;
50988;SDS011;37008;52.210;21.112;2022-10-23T14:26:08;18.52;;;16.52;;
50988;SDS011;37008;52.210;21.112;2022-10-23T14:28:35;21.80;;;16.98;;
50988;SDS011;37008;52.210;21.112;2022-10-23T14:31:05;24.17;;;17.70;;
50988;SDS011;37008;52.210;21.112;2022-10-23T14:33:32;23.23;;;16.95;;
50988;SDS011;37008;52.210;21.112;2022-10-23T14:35:57;24.35;;;18.02;;
50988;SDS011;37008;52.210;21.112;2022-10-23T14:38:23;20.80;;;17.90;;
50988;SDS011;37008;52.210;21.112;2022-10-23T14:40:49;23.45;;;18.10;;
50988;SDS011;37008;52.210;21.112;2022-10-23T14:43:15;23.75;;;17.55;;
50988;SDS011;37008;52.210;21.112;2022-10-23T14:45:40;24.80;;;17.48;;
50988;SDS011;37008;52.210;21.112;2022-10-23T14:48:06;22.55;;;18.20;;
50988;SDS011;37008;52.210;21.112;2022-10-23T14:50:32;23.13;;;16.33;;
50988;SDS011;37008;52.210;21.112;2022-10-23T14:52:59;25.20;;;16.90;;
50988;SDS011;37008;52.210;21.112;2022-10-23T14:55:25;20.80;;;17.17;;
50988;SDS011;37008;52.210;21.112;2022-10-23T14:57:54;17.60;;;15.35;;
50988;SDS011;37008;52.210;21.112;2022-10-23T15:00:20;20.48;;;16.55;;
50988;SDS011;37008;52.210;21.112;2022-10-23T15:02:47;24.92;;;17.65;;
50988;SDS011;37008;52.210;21.112;2022-10-23T15:05:13;19.40;;;16.05;;
50988;SDS011;37008;52.210;21.112;2022-10-23T15:07:39;19.60;;;15.88;;
50988;SDS011;37008;52.210;21.112;2022-10-23T15:10:05;23.63;;;16.15;;
50988;SDS011;37008;52.210;21.112;2022-10-23T15:12:32;20.27;;;17.23;;
50988;SDS011;37008;52.210;21.112;2022-10-23T15:15:18;24.85;;;16.85;;
50988;SDS011;37008;52.210;21.112;2022-10-23T15:17:43;23.23;;;17.73;;
50988;SDS011;37008;52.210;21.112;2022-10-23T15:20:09;19.17;;;16.33;;
50988;SDS011;37008;52.210;21.112;2022-10-23T15:22:35;20.92;;;16.10;;
50988;SDS011;37008;52.210;21.112;2022-10-23T15:25:04;18.95;;;16.15;;
50988;SDS011;37008;52.210;21.112;2022-10-23T15:27:30;18.95;;;15.80;;
50988;SDS011;37008;52.210;21.112;2022-10-23T15:29:56;21.98;;;15.45;;
50988;SDS011;37008;52.210;21.112;2022-10-23T15:32:21;21.38;;;16.42;;
50988;SDS011;37008;52.210;21.112;2022-10-23T15:34:48;19.98;;;15.75;;
50988;SDS011;37008;52.210;21.112;2022-10-23T15:37:18;22.90;;;14.57;;
50988;SDS011;37008;52.210;21.112;2022-10-23T15:39:44;15.27;;;12.75;;
50988;SDS011;37008;52.210;21.112;2022-10-23T15:42:10;19.38;;;12.55;;
50988;SDS011;37008;52.210;21.112;2022-10-23T15:44:36;17.85;;;13.13;;
50988;SDS011;37008;52.210;21.112;2022-10-23T15:47:05;16.92;;;13.48;;
50988;SDS011;37008;52.210;21.112;2022-10-23T15:49:31;19.98;;;12.75;;
50988;SDS011;37008;52.210;21.112;2022-10-23T15:51:57;20.70;;;12.95;;
50988;SDS011;37008;52.210;21.112;2022-10-23T15:54:23;18.20;;;13.05;;
50988;SDS011;37008;52.210;21.112;2022-10-23T15:56:52;16.95;;;12.48;;
50988;SDS011;37008;52.210;21.112;2022-10-23T15:59:19;20.40;;;13.80;;
50988;SDS011;37008;52.210;21.112;2022-10-23T16:01:50;16.38;;;13.05;;
50988;SDS011;37008;52.210;21.112;2022-10-23T16:04:27;23.45;;;13.77;;
50988;SDS011;37008;52.210;21.112;2022-10-23T16:06:54;23.67;;;14.15;;
50988;SDS011;37008;52.210;21.112;2022-10-23T16:09:19;23.05;;;16.38;;
50988;SDS011;37008;52.210;21.112;2022-10-23T16:11:45;23.75;;;16.77;;
50988;SDS011;37008;52.210;21.112;2022-10-23T16:14:12;18.65;;;15.88;;
50988;SDS011;37008;52.210;21.112;2022-10-23T16:16:39;26.08;;;20.77;;
50988;SDS011;37008;52.210;21.112;2022-10-23T16:19:05;33.42;;;24.30;;
50988;SDS011;37008;52.210;21.112;2022-10-23T16:21:32;32.83;;;24.98;;
50988;SDS011;37008;52.210;21.112;2022-10-23T16:24:00;38.83;;;24.13;;
50988;SDS011;37008;52.210;21.112;2022-10-23T16:26:28;21.77;;;18.27;;